This is the latest recevied weather packets stored in our database for station/object NK0Z-13. If no packets are shown the sender has not sent any weather packets the latest 10 day(s).
| Time | Temp. | Humidity | Pressure | Rain* | Wind** | Luminosity | Snow |
|---|---|---|---|---|---|---|---|
| 1777069000 | 23.89° C | 39% | 1010.1 hPa | 0 mm | - | 430 W/m² | - |
| 1777068397 | 23.89° C | 38% | 1010.2 hPa | 0 mm | - | 458 W/m² | - |
| 1777067797 | 23.89° C | 36% | 1010.4 hPa | 0 mm | - | 205 W/m² | - |
| 1777067194 | 23.89° C | 37% | 1010.4 hPa | 0 mm | - | 513 W/m² | - |
| 1777066591 | 23.89° C | 39% | 1010.3 hPa | 0 mm | - | 536 W/m² | - |
| 1777065987 | 23.89° C | 40% | 1010.7 hPa | 0 mm | - | 565 W/m² | - |
| 1777065383 | 23.89° C | 38% | 1010.8 hPa | 0 mm | - | 586 W/m² | - |
| 1777064782 | 23.89° C | 40% | 1010.9 hPa | 0 mm | - | 610 W/m² | - |
| 1777064181 | 23.89° C | 37% | 1011.1 hPa | 0 mm | - | 631 W/m² | - |
| 1777063576 | 23.33° C | 41% | 1011.1 hPa | 0 mm | - | 650 W/m² | - |
| 1777062975 | 23.89° C | 39% | 1011.2 hPa | 0 mm | - | 671 W/m² | - |
| 1777062375 | 23.33° C | 41% | 1011.2 hPa | 0 mm | - | 687 W/m² | - |
| 1777061775 | 23.33° C | 40% | 1011.7 hPa | 0 mm | - | 703 W/m² | - |
| 1777061174 | 23.33° C | 41% | 1012 hPa | 0 mm | - | 717 W/m² | - |
| 1777060575 | 22.78° C | 42% | 1011.8 hPa | 0 mm | - | 726 W/m² | - |
| 1777059973 | 22.78° C | 43% | 1012 hPa | 0 mm | - | 742 W/m² | - |
| 1777059373 | 22.78° C | 42% | 1012.1 hPa | 0 mm | - | 751 W/m² | - |
| 1777058769 | 21.67° C | 48% | 1012.2 hPa | 0 mm | - | 761 W/m² | - |
| 1777058168 | 21.67° C | 44% | 1012.3 hPa | 0 mm | - | 769 W/m² | - |
| 1777057563 | 21.67° C | 46% | 1012.4 hPa | 0 mm | - | 772 W/m² | - |
| 1777056961 | 21.11° C | 51% | 1012.2 hPa | 0 mm | - | 776 W/m² | - |
| 1777056356 | 20.56° C | 49% | 1012.6 hPa | 0 mm | - | 779 W/m² | - |
| 1777055754 | 20° C | 48% | 1012.4 hPa | 0 mm | - | 782 W/m² | - |
| 1777055150 | 20° C | 49% | 1012.5 hPa | 0 mm | - | 782 W/m² | - |
| 1777054548 | 20° C | 49% | 1012.7 hPa | 0 mm | - | 781 W/m² | - |
* Rain latest hour (hover to see other rain measurements)
** Current wind speed in m/s (hover to see current wind gust speed)